Friday, September 21, 2018, 9:26 PM EDT
Back to Local

KRKD, Rockland, Knox County Regional Airport

Location: Owls Head, ME, United States Lat: 44.067
Local Time: 9:26 PM EDT ( 1:26 GMT) Lon: -69.1
Time Zone: US/Eastern Elev: 55 ft

Show me the last for .
Show Decoded

2018-09-21 20:56 METAR KRKD 220056Z AUTO 20010G17KT 10SM OVC040 16/14 A2995 RMK AO2 SLP142
                 T01610144 =
2018-09-21 19:56 METAR KRKD 212356Z AUTO 20011G18KT 180V240 10SM OVC044 16/14 A2998 RMK AO2
                 SLP152 T01610139 10167 20156 56037 =
2018-09-21 18:56 METAR KRKD 212256Z AUTO 19011G15KT 10SM OVC042 16/14 A3001 RMK AO2 SLP163
                 T01610139 =
2018-09-21 18:18 METAR KRKD 212218Z AUTO 18012G18KT 10SM FEW022 OVC044 16/13 A3002 RMK AO2 =
2018-09-21 17:56 METAR KRKD 212156Z AUTO 18010G17KT 10SM BKN024 OVC030 16/13 A3004 RMK AO2 SLP173
                 T01610133 =
2018-09-21 16:56 METAR KRKD 212056Z AUTO 18010KT 10SM BKN026 OVC031 16/13 A3009 RMK AO2 SLP189
                 T01610128 56023 =
2018-09-21 16:46 METAR KRKD 212046Z AUTO 19009G16KT 10SM OVC029 16/13 A3009 RMK AO2 =
2018-09-21 16:09 METAR KRKD 212009Z AUTO 17010G16KT 10SM FEW025 SCT033 OVC050 16/13 A3011 RMK AO2
                 =
2018-09-21 15:56 METAR KRKD 211956Z AUTO 17008G17KT 10SM FEW020 BKN025 OVC050 16/14 A3011 RMK AO2
                 SLP198 T01610139 =
2018-09-21 14:56 METAR KRKD 211856Z AUTO 16010G16KT 10SM BKN020 OVC027 16/13 A3015 RMK AO2 SLP213
                 T01610128 =
2018-09-21 14:16 METAR KRKD 211816Z AUTO 15010KT 10SM BKN022 16/13 A3019 RMK AO2 =
2018-09-21 13:56 METAR KRKD 211756Z AUTO 15011G17KT 10SM SCT024 BKN075 BKN095 16/13 A3019 RMK AO2
                 SLP224 T01610128 10167 20128 58020 =
2018-09-21 12:56 METAR KRKD 211656Z AUTO 16010KT 10SM SCT001 16/13 A3023 RMK AO2 SLP237 T01560128
                 =
2018-09-21 12:54 METAR KRKD 211654Z AUTO 16008KT 10SM FEW001 16/13 A3022 RMK AO2 =
2018-09-21 11:56 METAR KRKD 211556Z AUTO 15013G17KT 10SM SCT090 17/12 A3025 RMK AO2 SLP244
                 T01670122 =
2018-09-21 10:56 METAR KRKD 211456Z AUTO 17009G16KT 10SM BKN090 OVC110 16/12 A3028 RMK AO2 SLP255
                 T01610117 58013 =
2018-09-21 09:56 METAR KRKD 211356Z AUTO 15008KT 10SM BKN110 16/12 A3031 RMK AO2 SLP266 T01560117
                 =
2018-09-21 08:56 METAR KRKD 211256Z AUTO 18006KT 10SM CLR 16/11 A3032 RMK AO2 SLP269 T01560111 =
2018-09-21 07:56 METAR KRKD 211156Z AUTO 00000KT 10SM CLR 13/12 A3032 RMK AO2 SLP268 T01280122
                 10128 20089 50002 =
2018-09-21 06:56 METAR KRKD 211056Z AUTO 00000KT 10SM CLR 11/11 A3032 RMK AO2 SLP269 T01060106 =
2018-09-21 05:56 METAR KRKD 210956Z AUTO 00000KT 10SM CLR 11/10 A3031 RMK AO2 SLP267 T01060100 =
2018-09-21 04:56 METAR KRKD 210856Z AUTO 00000KT 10SM CLR 09/09 A3031 RMK AO2 SLP266 T00940089
                 55004 =
2018-09-21 03:56 METAR KRKD 210756Z AUTO 00000KT 10SM BKN060 09/09 A3031 RMK AO2 SLP264 T00940094
                 =
2018-09-21 02:56 METAR KRKD 210656Z AUTO 00000KT 8SM CLR 09/09 A3031 RMK AO2 SLP264 T00940094 =
2018-09-21 01:56 METAR KRKD 210556Z AUTO 00000KT 10SM OVC060 10/10 A3032 RMK AO2 SLP271 T01000100
                 10117 20100 50000 =
2018-09-21 00:56 METAR KRKD 210456Z AUTO 00000KT 9SM OVC060 10/10 A3033 RMK AO2 SLP272 T01000100
                 401500100 =
2018-09-20 23:56 METAR KRKD 210356Z AUTO 00000KT 10SM SCT060 10/10 A3033 RMK AO2 SLP273 T01000100
                 =
2018-09-20 22:56 METAR KRKD 210256Z AUTO 00000KT 10SM OVC055 12/11 A3032 RMK AO2 SLP270 T01170111
                 51007 =
2018-09-20 21:56 METAR KRKD 210156Z AUTO 00000KT 10SM OVC060 12/11 A3032 RMK AO2 SLP269 T01170106
                 =

Support USWX by starting your Amazon purchase here.